Time;durP1;ratioP1;P1;durP2;ratioP2;P2;SDS_P1;SDS_P2;PMS_P1;PMS_P2;Temp;Humidity;BMP_temperature;BMP_pressure;BME280_temperature;BME280_humidity;BME280_pressure;Samples;Min_cycle;Max_cycle;Signal;HPM_P1;HPM_P2
2022/05/28 00:00:53;;;;;;;12.75;1.02;;;;;;;8.57;95.56;101608.38;2079093;28;42143;-63
2022/05/28 00:01:55;;;;;;;8.00;0.80;;;;;;;8.57;94.94;101609.25;2071583;28;37717;-63
2022/05/28 00:02:57;;;;;;;11.27;1.00;;;;;;;8.58;95.34;101610.16;2079135;28;45991;-63
2022/05/28 00:04:04;;;;;;;9.32;0.90;;;;;;;8.56;94.99;101620.84;2080754;28;20038;-63
2022/05/28 00:05:07;;;;;;;7.57;0.80;;;;;;;8.54;95.83;101619.97;2079703;28;46286;-65
2022/05/28 00:06:11;;;;;;;8.02;0.93;;;;;;;8.52;94.78;101615.50;2087898;28;44642;-62
2022/05/28 00:07:13;;;;;;;9.85;0.60;;;;;;;8.51;95.58;101613.75;2079379;28;45634;-64
2022/05/28 00:08:16;;;;;;;9.77;0.85;;;;;;;8.47;95.05;101617.28;2079267;28;43837;-63
2022/05/28 00:09:18;;;;;;;9.50;0.95;;;;;;;8.45;95.22;101611.06;2080052;28;42929;-62
2022/05/28 00:10:20;;;;;;;11.25;0.68;;;;;;;8.43;95.33;101610.19;2080266;28;31984;-62
2022/05/28 00:11:27;;;;;;;12.23;1.00;;;;;;;8.40;95.34;101619.97;2079609;28;44294;-65
2022/05/28 00:12:29;;;;;;;15.30;1.10;;;;;;;8.36;95.69;101615.53;2087672;28;44965;-62
2022/05/28 00:13:30;;;;;;;11.73;1.17;;;;;;;8.34;95.08;101611.94;2079068;28;45940;-63
2022/05/28 00:14:32;;;;;;;9.80;0.93;;;;;;;8.34;95.69;101611.06;2079114;28;43072;-63
2022/05/28 00:15:34;;;;;;;9.45;0.50;;;;;;;8.33;95.54;101615.53;2079727;28;43036;-63
2022/05/28 00:16:36;;;;;;;9.05;0.70;;;;;;;8.34;95.45;101611.94;2079712;28;45976;-63
2022/05/28 00:17:41;;;;;;;5.13;0.50;;;;;;;8.29;95.07;101616.44;2086939;28;43389;-63
2022/05/28 00:18:47;;;;;;;8.05;0.55;;;;;;;8.27;94.79;101615.53;2086531;28;45010;-63
2022/05/28 00:19:49;;;;;;;9.00;0.82;;;;;;;8.29;94.74;101618.19;2080146;28;44640;-63
2022/05/28 00:20:51;;;;;;;9.82;0.73;;;;;;;8.24;95.03;101615.56;2079473;28;44442;-63
2022/05/28 00:21:52;;;;;;;9.98;0.65;;;;;;;8.20;94.80;101619.09;2080063;28;44418;-63
2022/05/28 00:22:55;;;;;;;9.52;0.68;;;;;;;8.26;95.99;101610.22;2079808;28;43776;-63
2022/05/28 00:23:57;;;;;;;10.90;1.30;;;;;;;8.23;94.77;101613.78;2079115;28;43675;-63
2022/05/28 00:24:58;;;;;;;10.07;0.85;;;;;;;8.22;94.79;101618.22;2080036;28;44631;-63
2022/05/28 00:26:00;;;;;;;11.38;1.17;;;;;;;8.19;95.20;101612.00;2079704;28;45316;-63
2022/05/28 00:27:03;;;;;;;14.07;0.90;;;;;;;8.20;95.11;101613.75;2080016;28;39822;-64
2022/05/28 00:28:05;;;;;;;10.70;0.73;;;;;;;8.17;95.29;101609.34;2080138;28;45769;-62
2022/05/28 00:29:07;;;;;;;14.30;0.75;;;;;;;8.17;95.07;101609.34;2079516;28;45572;-62
2022/05/28 00:30:14;;;;;;;10.80;0.73;;;;;;;8.20;94.30;101611.09;2080014;28;46046;-64
2022/05/28 00:31:16;;;;;;;12.23;0.85;;;;;;;8.20;94.17;101609.34;2087342;28;43123;-62
2022/05/28 00:32:20;;;;;;;9.68;0.82;;;;;;;8.25;93.85;101609.31;2086502;28;46533;-63
2022/05/28 00:33:24;;;;;;;12.55;0.70;;;;;;;8.23;92.93;101617.31;2079093;28;43306;-62
2022/05/28 00:34:27;;;;;;;7.20;0.70;;;;;;;8.28;92.52;101616.44;2079467;28;44288;-62
2022/05/28 00:35:31;;;;;;;14.63;0.75;;;;;;;8.27;93.14;101601.31;2079956;28;39927;-65
2022/05/28 00:36:32;;;;;;;9.65;0.90;;;;;;;8.30;92.49;101612.88;2079889;28;45076;-62
2022/05/28 00:37:34;;;;;;;11.75;1.02;;;;;;;8.23;92.76;101608.44;2079609;28;46313;-62
2022/05/28 00:38:39;;;;;;;9.32;0.50;;;;;;;8.21;93.16;101605.78;2079615;28;44992;-64
2022/05/28 00:39:43;;;;;;;12.15;0.82;;;;;;;8.18;92.77;101604.88;2086844;28;45036;-62
2022/05/28 00:40:47;;;;;;;9.00;0.70;;;;;;;8.22;91.79;101612.00;2086603;28;43339;-62
2022/05/28 00:41:49;;;;;;;10.10;0.90;;;;;;;8.21;91.55;101612.91;2079553;28;44324;-62
2022/05/28 00:42:51;;;;;;;7.80;1.27;;;;;;;8.18;91.73;101607.56;2087093;28;46420;-62
2022/05/28 00:43:53;;;;;;;8.38;0.52;;;;;;;8.16;91.25;101604.00;2087172;28;43440;-62
2022/05/28 00:44:57;;;;;;;12.32;0.93;;;;;;;8.16;91.24;101604.00;2079590;28;45595;-65
2022/05/28 00:46:18;;;;;;;11.48;0.90;;;;;;;8.15;91.36;101604.91;2079634;28;46391;-62
2022/05/28 00:47:22;;;;;;;9.10;0.47;;;;;;;8.17;91.90;101614.69;2087344;28;44113;-63
2022/05/28 00:48:29;;;;;;;10.13;0.63;;;;;;;8.17;91.33;101604.00;2085327;28;46515;-62
2022/05/28 00:49:32;;;;;;;11.57;0.88;;;;;;;8.16;90.54;101612.88;2087873;28;26723;-65
2022/05/28 00:50:39;;;;;;;8.77;0.50;;;;;;;8.15;90.98;101607.59;2078292;28;45511;-63
2022/05/28 00:51:48;;;;;;;12.48;0.93;;;;;;;8.13;91.46;101609.34;2071869;28;45541;-65
2022/05/28 00:52:49;;;;;;;13.05;0.68;;;;;;;8.15;91.42;101603.13;2072671;28;44295;-62
2022/05/28 00:53:56;;;;;;;12.75;0.80;;;;;;;8.06;91.22;101607.56;2078886;28;45638;-63
2022/05/28 00:55:02;;;;;;;8.68;0.95;;;;;;;8.06;91.04;101610.25;2088494;28;20049;-62
2022/05/28 00:56:07;;;;;;;12.98;1.00;;;;;;;8.08;90.72;101613.81;2079233;28;44081;-62
2022/05/28 00:57:11;;;;;;;15.10;0.95;;;;;;;8.11;90.63;101605.78;2078942;28;46926;-62
2022/05/28 00:58:12;;;;;;;11.13;1.00;;;;;;;8.07;90.59;101601.38;2078933;28;42412;-63
2022/05/28 00:59:15;;;;;;;13.57;0.77;;;;;;;8.09;91.15;101611.13;2079023;28;44553;-64
2022/05/28 01:00:22;;;;;;;7.25;0.80;;;;;;;8.00;91.03;101609.38;2087514;28;36584;-62
2022/05/28 01:01:27;;;;;;;9.85;0.80;;;;;;;8.07;90.79;101612.03;2079707;28;45451;-65
2022/05/28 01:02:41;;;;;;;5.85;0.50;;;;;;;8.03;90.96;101609.34;2087269;28;46698;-64
2022/05/28 01:04:34;;;;;;;9.20;1.00;;;;;;;7.94;91.28;101612.03;2084742;28;44631;-64
2022/05/28 01:05:59;;;;;;;10.02;0.60;;;;;;;7.98;90.70;101611.16;2066490;28;43991;-64
2022/05/28 01:07:34;;;;;;;11.70;0.70;;;;;;;7.95;90.56;101610.25;2079529;28;44648;-62
2022/05/28 01:08:49;;;;;;;11.55;0.93;;;;;;;7.93;90.92;101607.63;2087009;28;43703;-63
2022/05/28 01:10:30;;;;;;;11.38;1.10;;;;;;;7.88;90.69;101608.50;2081977;28;44932;-63
2022/05/28 01:11:47;;;;;;;13.50;0.70;;;;;;;7.79;91.44;101617.41;2070847;28;43304;-62
2022/05/28 01:13:07;;;;;;;10.48;0.68;;;;;;;7.82;91.68;101610.31;2087305;28;43914;-63
2022/05/28 01:14:24;;;;;;;8.32;0.73;;;;;;;7.84;91.62;101610.28;2083786;28;44305;-63
2022/05/28 01:15:35;;;;;;;12.93;1.10;;;;;;;7.85;91.58;101614.72;2079404;28;43790;-63
2022/05/28 01:16:44;;;;;;;8.57;0.90;;;;;;;7.86;91.56;101610.28;2079396;28;44568;-63
2022/05/28 01:17:53;;;;;;;11.30;1.02;;;;;;;7.88;91.03;101612.06;2087331;28;44324;-63
2022/05/28 01:19:30;;;;;;;14.75;1.00;;;;;;;7.87;91.40;101604.94;2079105;28;42765;-63
2022/05/28 01:20:46;;;;;;;9.90;1.10;;;;;;;7.91;90.72;101598.72;2078871;28;46477;-63
2022/05/28 01:22:12;;;;;;;9.93;0.55;;;;;;;7.91;90.67;101598.72;2087307;28;43291;-63
2022/05/28 01:23:21;;;;;;;9.25;0.60;;;;;;;7.84;90.50;101602.28;2079153;28;43342;-62
2022/05/28 01:24:44;;;;;;;8.93;0.80;;;;;;;7.82;90.87;101609.38;2065313;28;44500;-62
2022/05/28 01:25:55;;;;;;;7.88;0.90;;;;;;;7.80;90.62;101597.84;2076858;28;43150;-62
2022/05/28 01:27:22;;;;;;;9.77;0.80;;;;;;;7.78;90.66;101605.84;2085627;28;46324;-63
2022/05/28 01:28:41;;;;;;;11.25;1.15;;;;;;;7.77;91.47;101603.16;2079807;28;44475;-61
2022/05/28 01:29:56;;;;;;;6.63;0.57;;;;;;;7.74;91.20;101600.53;2079365;28;42959;-63
2022/05/28 01:31:00;;;;;;;12.40;1.05;;;;;;;7.72;91.50;101607.63;2087287;28;44917;-63
2022/05/28 01:32:04;;;;;;;11.70;0.80;;;;;;;7.72;91.45;101607.63;2078211;28;45495;-64
2022/05/28 01:33:08;;;;;;;9.68;0.88;;;;;;;7.68;90.84;101603.19;2071547;28;42910;-63
2022/05/28 01:34:11;;;;;;;10.02;1.00;;;;;;;7.68;91.30;101601.41;2078984;28;43542;-65
2022/05/28 01:35:16;;;;;;;13.55;0.93;;;;;;;7.71;90.66;101598.72;2078513;28;44084;-65
2022/05/28 01:36:23;;;;;;;18.05;1.13;;;;;;;7.69;91.30;101600.50;2079680;28;20854;-64
2022/05/28 01:37:26;;;;;;;9.90;0.95;;;;;;;7.65;91.00;101604.97;2087051;28;43744;-63
2022/05/28 01:38:29;;;;;;;11.88;1.02;;;;;;;7.65;91.43;101593.41;2078790;28;39477;-64
2022/05/28 01:39:33;;;;;;;12.50;1.35;;;;;;;7.68;90.51;101597.84;2078550;28;44483;-63
2022/05/28 01:40:36;;;;;;;14.25;0.80;;;;;;;7.68;90.58;101597.84;2086711;28;44283;-62
2022/05/28 01:41:39;;;;;;;7.22;0.90;;;;;;;7.67;90.13;101596.97;2086212;28;43494;-62
2022/05/28 01:42:51;;;;;;;8.00;0.93;;;;;;;7.63;90.44;101597.88;2079482;28;43850;-64
2022/05/28 01:43:54;;;;;;;7.88;0.75;;;;;;;7.64;90.80;101599.63;2087066;28;45733;-64
2022/05/28 01:44:57;;;;;;;12.70;0.93;;;;;;;7.68;91.38;101600.50;2070394;28;43733;-64
2022/05/28 01:45:59;;;;;;;9.48;1.00;;;;;;;7.71;91.11;101597.84;2071537;28;42894;-62
2022/05/28 01:47:03;;;;;;;14.50;0.82;;;;;;;7.68;90.99;101596.09;2086309;28;46435;-62
2022/05/28 01:48:06;;;;;;;8.55;0.80;;;;;;;7.71;90.29;101604.06;2079380;28;44385;-63
2022/05/28 01:49:13;;;;;;;10.95;0.75;;;;;;;7.71;90.98;101592.53;2079191;28;44262;-64
2022/05/28 01:50:19;;;;;;;15.98;1.05;;;;;;;7.67;90.59;101588.97;2078278;28;45622;-64
2022/05/28 01:51:33;;;;;;;12.27;1.35;;;;;;;7.70;89.93;101590.72;2079309;28;43643;-65
2022/05/28 01:52:35;;;;;;;13.05;0.80;;;;;;;7.71;89.94;101595.19;2084465;28;46294;-65
2022/05/28 01:55:03;;;;;;;10.88;0.85;;;;;;;7.64;90.13;101594.28;2078176;28;45355;-65
2022/05/28 01:56:06;;;;;;;11.57;1.10;;;;;;;7.63;90.33;101589.88;2073775;28;46066;-64
2022/05/28 01:57:08;;;;;;;9.35;1.40;;;;;;;7.66;90.12;101589.84;2078306;28;44101;-62
2022/05/28 01:58:10;;;;;;;9.77;0.55;;;;;;;7.63;89.74;101577.41;2086767;28;46300;-64
2022/05/28 01:59:16;;;;;;;9.38;1.02;;;;;;;7.65;89.50;101588.09;2078579;28;31917;-64
2022/05/28 02:00:18;;;;;;;10.88;0.80;;;;;;;7.62;90.45;101583.63;2071548;28;45607;-65
2022/05/28 02:01:25;;;;;;;8.50;1.10;;;;;;;7.58;90.27;101584.53;2079467;28;20081;-64
2022/05/28 02:02:27;;;;;;;9.98;1.55;;;;;;;7.60;90.43;101584.53;2079099;28;45540;-64
2022/05/28 02:03:34;;;;;;;14.25;0.90;;;;;;;7.61;90.31;101579.22;2079148;28;46216;-64
2022/05/28 02:04:39;;;;;;;11.88;1.10;;;;;;;7.61;90.50;101579.22;2086905;28;44885;-64
2022/05/28 02:05:40;;;;;;;13.63;1.00;;;;;;;7.59;90.28;101575.66;2085690;28;42081;-65
2022/05/28 02:06:42;;;;;;;16.05;1.65;;;;;;;7.59;90.15;101573.00;2078981;28;45418;-64
2022/05/28 02:07:44;;;;;;;8.57;0.75;;;;;;;7.60;89.87;101573.88;2079084;28;42123;-64
2022/05/28 02:08:50;;;;;;;9.80;0.93;;;;;;;7.59;90.06;101573.00;2079045;28;43801;-65
2022/05/28 02:10:06;;;;;;;13.13;1.17;;;;;;;7.60;89.71;101574.75;2086276;28;45594;-65
2022/05/28 02:11:22;;;;;;;11.63;0.77;;;;;;;7.60;89.07;101566.75;2083825;28;45251;-64
2022/05/28 02:12:45;;;;;;;11.93;0.80;;;;;;;7.62;89.28;101567.63;2087108;28;44948;-64
2022/05/28 02:14:07;;;;;;;10.52;0.88;;;;;;;7.54;89.53;101566.78;2078459;28;42352;-64
2022/05/28 02:15:22;;;;;;;16.55;1.02;;;;;;;7.51;89.47;101569.44;2078960;28;44425;-65
2022/05/28 02:16:47;;;;;;;14.30;1.17;;;;;;;7.52;89.63;101573.88;2087080;28;45995;-64
2022/05/28 02:18:16;;;;;;;12.13;1.00;;;;;;;7.51;89.51;101569.44;2078664;28;44080;-64
2022/05/28 02:19:40;;;;;;;10.73;0.93;;;;;;;7.50;89.60;101569.44;2078973;28;44920;-65
2022/05/28 02:21:03;;;;;;;9.50;0.80;;;;;;;7.56;89.15;101572.09;2086388;28;44213;-64
2022/05/28 02:22:21;;;;;;;8.07;1.20;;;;;;;7.55;89.20;101563.19;2081797;28;44437;-64
2022/05/28 02:23:44;;;;;;;9.07;1.00;;;;;;;7.59;89.38;101573.00;2086751;28;44535;-64
2022/05/28 02:24:54;;;;;;;14.00;1.13;;;;;;;7.60;89.30;101569.41;2078541;28;44099;-64
2022/05/28 02:26:07;;;;;;;14.63;1.05;;;;;;;7.63;88.71;101577.41;2078671;28;46246;-64
2022/05/28 02:27:15;;;;;;;11.55;0.95;;;;;;;7.70;88.12;101565.00;2087091;28;43516;-64
2022/05/28 02:28:22;;;;;;;12.80;1.40;;;;;;;7.74;87.83;101577.41;2078314;28;45250;-64
2022/05/28 02:29:24;;;;;;;15.82;1.15;;;;;;;7.77;87.73;101572.09;2078862;28;44835;-65
2022/05/28 02:30:26;;;;;;;11.85;0.82;;;;;;;7.74;87.62;101577.41;2086475;28;44072;-62
2022/05/28 02:31:32;;;;;;;13.40;1.13;;;;;;;7.73;87.47;101570.28;2078673;28;45075;-65
2022/05/28 02:32:33;;;;;;;11.48;1.10;;;;;;;7.74;87.26;101571.22;2071647;28;43546;-64
2022/05/28 02:33:35;;;;;;;9.93;0.80;;;;;;;7.71;87.30;101568.53;2078594;28;44288;-64
2022/05/28 02:34:37;;;;;;;11.43;0.77;;;;;;;7.74;87.27;101582.75;2078644;28;44899;-64
2022/05/28 02:35:39;;;;;;;12.50;1.13;;;;;;;7.76;86.98;101569.41;2079058;28;43338;-65
2022/05/28 02:36:43;;;;;;;11.40;0.95;;;;;;;7.71;86.99;101565.88;2078842;28;45391;-64
2022/05/28 02:37:46;;;;;;;11.25;0.93;;;;;;;7.72;87.42;101568.53;2086774;28;45545;-64
2022/05/28 02:38:51;;;;;;;10.07;1.15;;;;;;;7.79;87.33;101569.44;2078743;28;38980;-64
2022/05/28 02:39:53;;;;;;;16.33;1.48;;;;;;;7.78;86.54;101568.53;2078061;28;45912;-64
2022/05/28 02:40:54;;;;;;;12.05;1.20;;;;;;;7.77;86.82;101569.44;2079019;28;43307;-64
2022/05/28 02:41:56;;;;;;;13.63;1.10;;;;;;;7.82;87.83;101564.97;2078754;28;45818;-64
2022/05/28 02:42:58;;;;;;;9.98;0.90;;;;;;;7.88;86.41;101563.16;2077928;28;45906;-65
2022/05/28 02:44:05;;;;;;;8.45;0.82;;;;;;;7.91;86.88;101566.72;2078658;28;40499;-64
2022/05/28 02:45:07;;;;;;;9.73;0.75;;;;;;;7.99;85.32;101572.94;2078865;28;45153;-65
2022/05/28 02:46:09;;;;;;;11.13;0.90;;;;;;;7.99;85.97;101586.25;2079159;28;44398;-64
2022/05/28 02:47:11;;;;;;;14.25;1.48;;;;;;;8.06;86.02;101584.47;2078157;28;44270;-64
2022/05/28 02:48:13;;;;;;;15.73;1.42;;;;;;;8.11;85.81;101589.78;2078363;28;45722;-64
2022/05/28 02:49:15;;;;;;;11.93;1.60;;;;;;;8.19;85.40;101577.34;2078806;28;44090;-64
2022/05/28 02:50:16;;;;;;;8.82;1.00;;;;;;;8.26;84.55;101587.09;2079884;28;20895;-64
2022/05/28 02:51:22;;;;;;;12.07;0.90;;;;;;;8.25;85.58;101587.09;2078927;28;43026;-64
2022/05/28 02:52:26;;;;;;;12.90;1.27;;;;;;;8.26;86.06;101581.75;2079406;28;44012;-64
2022/05/28 02:53:30;;;;;;;10.77;1.05;;;;;;;8.22;86.22;101580.88;2079039;28;44679;-64
2022/05/28 02:54:34;;;;;;;10.73;1.00;;;;;;;8.21;86.38;101573.75;2080365;28;20038;-64
2022/05/28 02:55:36;;;;;;;12.43;1.00;;;;;;;8.21;85.94;101578.22;2078506;28;45439;-64
2022/05/28 02:56:41;;;;;;;8.30;0.82;;;;;;;8.16;85.82;101586.22;2078901;28;44670;-64
2022/05/28 02:57:43;;;;;;;10.00;1.27;;;;;;;8.15;86.12;101578.25;2078204;28;43388;-64
2022/05/28 02:58:47;;;;;;;7.78;0.68;;;;;;;8.14;84.91;101587.13;2079465;28;20483;-64
2022/05/28 02:59:49;;;;;;;9.02;0.98;;;;;;;8.08;85.98;101572.03;2078869;28;37534;-64
2022/05/28 03:00:51;;;;;;;9.18;1.40;;;;;;;8.09;85.38;101586.25;2078724;28;43906;-65
2022/05/28 03:01:53;;;;;;;8.70;0.70;;;;;;;8.06;86.59;101578.25;2078811;28;44675;-64
2022/05/28 03:02:55;;;;;;;10.50;0.95;;;;;;;8.01;86.47;101579.16;2078993;28;44422;-64
2022/05/28 03:03:57;;;;;;;8.55;0.93;;;;;;;8.02;86.07;101578.28;2078595;28;44890;-64
2022/05/28 03:04:59;;;;;;;10.13;1.02;;;;;;;8.07;85.63;101580.91;2087044;28;38041;-64
2022/05/28 03:06:00;;;;;;;9.35;0.90;;;;;;;8.13;85.47;101574.66;2077819;28;45458;-65
2022/05/28 03:07:05;;;;;;;9.85;1.25;;;;;;;8.16;85.57;101580.88;2078115;28;44661;-64
2022/05/28 03:08:08;;;;;;;9.68;1.05;;;;;;;8.18;85.43;101575.53;2086838;28;44269;-64
2022/05/28 03:09:13;;;;;;;7.53;0.90;;;;;;;8.20;84.47;101577.34;2085487;28;46773;-64
2022/05/28 03:10:15;;;;;;;8.88;1.00;;;;;;;8.21;85.09;101576.41;2078866;28;42203;-65
2022/05/28 03:11:20;;;;;;;9.07;0.70;;;;;;;8.23;84.56;101577.31;2078597;28;45462;-64
2022/05/28 03:12:21;;;;;;;10.90;1.02;;;;;;;8.26;84.05;101580.88;2078785;28;44433;-64
2022/05/28 03:13:23;;;;;;;8.35;0.60;;;;;;;8.27;84.21;101574.63;2079658;28;31938;-65
2022/05/28 03:14:25;;;;;;;9.82;0.90;;;;;;;8.27;85.35;101563.97;2078837;28;43835;-64
2022/05/28 03:15:27;;;;;;;7.05;0.75;;;;;;;8.26;84.88;101570.22;2078637;28;44401;-64
2022/05/28 03:16:29;;;;;;;7.72;1.20;;;;;;;8.26;85.80;101571.09;2079386;28;45567;-64
2022/05/28 03:17:30;;;;;;;11.60;1.20;;;;;;;8.27;84.37;101571.97;2078924;28;46316;-62
2022/05/28 03:18:32;;;;;;;9.75;1.13;;;;;;;8.31;84.62;101573.72;2078550;28;44564;-64
2022/05/28 03:19:34;;;;;;;11.40;0.98;;;;;;;8.30;83.74;101571.97;2079058;28;45865;-64
2022/05/28 03:20:35;;;;;;;8.63;0.77;;;;;;;8.27;84.15;101574.63;2078399;28;44661;-64
2022/05/28 03:21:37;;;;;;;7.90;0.60;;;;;;;8.26;84.88;101572.88;2078526;28;44099;-64
2022/05/28 03:22:41;;;;;;;7.72;0.70;;;;;;;8.23;84.61;101579.09;2078038;28;44793;-64
2022/05/28 03:23:47;;;;;;;9.10;1.08;;;;;;;8.18;84.79;101578.22;2077755;28;43142;-65
2022/05/28 03:24:49;;;;;;;8.68;0.80;;;;;;;8.17;86.17;101577.34;2086552;28;42751;-64
2022/05/28 03:25:51;;;;;;;9.80;1.00;;;;;;;8.15;85.87;101573.78;2085590;28;46978;-64
2022/05/28 03:26:54;;;;;;;13.80;1.27;;;;;;;8.17;84.92;101582.66;2078482;28;43831;-64
2022/05/28 03:27:56;;;;;;;9.00;0.85;;;;;;;8.17;85.46;101581.78;2079866;28;30994;-64
2022/05/28 03:28:58;;;;;;;7.25;0.93;;;;;;;8.17;85.60;101588.00;2079238;28;43060;-64
2022/05/28 03:30:00;;;;;;;9.48;1.10;;;;;;;8.15;85.24;101581.78;2080266;28;43905;-64
2022/05/28 03:31:04;;;;;;;9.57;0.90;;;;;;;8.13;85.66;101574.66;2079936;28;44221;-64
2022/05/28 03:32:07;;;;;;;14.88;1.20;;;;;;;8.16;85.31;101580.00;2080953;28;20115;-64
2022/05/28 03:33:09;;;;;;;11.32;1.13;;;;;;;8.20;85.53;101580.00;2080646;28;36689;-64
2022/05/28 03:34:11;;;;;;;13.05;1.38;;;;;;;8.22;85.62;101585.34;2080183;28;42336;-64
2022/05/28 03:35:13;;;;;;;11.82;1.25;;;;;;;8.22;86.02;101588.88;2079751;28;45351;-64
2022/05/28 03:36:14;;;;;;;13.43;1.00;;;;;;;8.24;85.78;101594.22;2088066;28;33709;-64
2022/05/28 03:37:16;;;;;;;11.35;1.10;;;;;;;8.30;85.61;101593.31;2079087;28;45142;-64
2022/05/28 03:38:19;;;;;;;12.23;1.42;;;;;;;8.33;86.04;101593.31;2080937;28;20795;-64
2022/05/28 03:39:21;;;;;;;16.23;1.52;;;;;;;8.34;85.97;101595.94;2080224;28;42144;-64
2022/05/28 03:40:22;;;;;;;10.77;1.20;;;;;;;8.37;85.87;101595.94;2071348;28;42795;-64
2022/05/28 03:41:27;;;;;;;10.27;0.95;;;;;;;8.39;86.38;101593.28;2071542;28;44656;-64
2022/05/28 03:42:28;;;;;;;10.70;1.50;;;;;;;8.43;86.11;101588.84;2079344;28;43958;-64
2022/05/28 03:43:30;;;;;;;12.32;0.95;;;;;;;8.44;86.78;101588.84;2080116;28;45159;-64
2022/05/28 03:44:32;;;;;;;14.30;1.35;;;;;;;8.47;86.07;101591.50;2080218;28;40588;-64
2022/05/28 03:45:34;;;;;;;11.90;1.58;;;;;;;8.50;86.04;101590.59;2080307;28;43725;-64
2022/05/28 03:46:39;;;;;;;13.70;1.00;;;;;;;8.54;86.65;101587.03;2079351;28;44904;-64
2022/05/28 03:47:41;;;;;;;10.10;1.77;;;;;;;8.58;86.84;101591.47;2079250;28;44939;-64
2022/05/28 03:48:47;;;;;;;14.77;1.40;;;;;;;8.65;86.61;101595.88;2079798;28;45190;-64
2022/05/28 03:49:52;;;;;;;10.45;1.27;;;;;;;8.68;84.39;101584.28;2080364;28;36993;-64
2022/05/28 03:50:54;;;;;;;13.35;1.30;;;;;;;8.74;84.62;101595.84;2079957;28;45789;-63
2022/05/28 03:51:56;;;;;;;16.85;1.70;;;;;;;8.79;83.46;101599.38;2079844;28;44541;-64
2022/05/28 03:52:57;;;;;;;9.32;1.42;;;;;;;8.84;84.71;101588.66;2087268;28;43235;-64
2022/05/28 03:53:59;;;;;;;13.27;1.05;;;;;;;8.89;83.50;101602.00;2087695;28;42931;-64
2022/05/28 03:55:01;;;;;;;11.10;0.93;;;;;;;8.92;83.65;101594.84;2087749;28;43547;-64
2022/05/28 03:56:03;;;;;;;11.70;1.13;;;;;;;8.96;83.61;101585.91;2087061;28;43953;-64
2022/05/28 03:57:08;;;;;;;10.38;1.40;;;;;;;9.08;81.49;101592.06;2080330;28;44835;-64
2022/05/28 03:58:11;;;;;;;12.63;1.10;;;;;;;9.16;81.76;101593.81;2079969;28;43339;-64
2022/05/28 03:59:13;;;;;;;7.90;0.90;;;;;;;9.20;81.33;101596.47;2078933;28;45354;-64
2022/05/28 04:00:18;;;;;;;8.15;0.90;;;;;;;9.16;81.35;101595.59;2079511;28;44705;-64
2022/05/28 04:01:20;;;;;;;10.93;0.95;;;;;;;9.15;81.81;101608.09;2080479;28;42982;-64
2022/05/28 04:02:22;;;;;;;10.13;1.33;;;;;;;9.20;81.16;101604.47;2079751;28;45566;-64
2022/05/28 04:03:26;;;;;;;12.20;1.20;;;;;;;9.32;80.83;101599.94;2080411;28;45408;-64
2022/05/28 04:04:28;;;;;;;11.48;0.88;;;;;;;9.51;78.65;101606.03;2079787;28;45940;-64
2022/05/28 04:05:30;;;;;;;7.95;0.68;;;;;;;9.78;78.02;101600.47;2080702;28;31820;-64
2022/05/28 04:06:35;;;;;;;8.85;0.93;;;;;;;10.06;77.99;101599.28;2087068;28;42925;-64
2022/05/28 04:07:38;;;;;;;5.47;0.75;;;;;;;10.36;77.23;101605.25;2078994;28;43102;-64
2022/05/28 04:08:40;;;;;;;8.13;0.85;;;;;;;10.57;75.27;101593.44;2079518;28;41298;-64
2022/05/28 04:09:42;;;;;;;6.95;0.82;;;;;;;10.78;74.37;101599.41;2079687;28;43927;-63
2022/05/28 04:10:44;;;;;;;5.55;0.93;;;;;;;10.93;73.70;101601.88;2080119;28;44911;-64
2022/05/28 04:11:46;;;;;;;9.43;0.93;;;;;;;10.94;73.81;101598.28;2080983;28;20035;-63
2022/05/28 04:12:48;;;;;;;8.60;0.75;;;;;;;11.20;72.02;101591.69;2079761;28;44207;-64
2022/05/28 04:13:50;;;;;;;7.72;0.57;;;;;;;11.38;71.90;101595.88;2080165;28;45734;-64
2022/05/28 04:14:54;;;;;;;9.25;0.93;;;;;;;11.84;70.93;101595.06;2079690;28;44045;-64
2022/05/28 04:15:56;;;;;;;7.65;0.75;;;;;;;12.08;69.92;101593.78;2086435;28;44753;-64
2022/05/28 04:16:58;;;;;;;10.02;0.80;;;;;;;12.18;69.50;101584.63;2070638;28;44210;-64
2022/05/28 04:18:00;;;;;;;7.60;0.90;;;;;;;11.94;70.22;101585.13;2071562;28;44459;-64
2022/05/28 04:19:02;;;;;;;7.53;0.93;;;;;;;12.09;69.50;101590.19;2079708;28;45798;-64
2022/05/28 04:20:06;;;;;;;7.78;1.08;;;;;;;11.47;69.87;101590.34;2080048;28;44140;-64
2022/05/28 04:21:08;;;;;;;7.28;0.82;;;;;;;11.31;71.37;101583.47;2079333;28;44925;-64
2022/05/28 04:22:10;;;;;;;8.13;0.70;;;;;;;11.55;71.54;101591.09;2079981;28;43342;-64
2022/05/28 04:23:12;;;;;;;7.72;0.88;;;;;;;11.42;70.86;101592.22;2080057;28;43031;-64
2022/05/28 04:24:16;;;;;;;8.05;0.80;;;;;;;11.53;70.32;101584.00;2079842;28;44000;-65
2022/05/28 04:25:17;;;;;;;4.15;0.70;;;;;;;11.77;70.52;101588.03;2079520;28;42335;-64
2022/05/28 04:26:19;;;;;;;7.40;0.90;;;;;;;11.70;71.01;101592.66;2080107;28;45359;-64
2022/05/28 04:27:21;;;;;;;11.43;1.50;;;;;;;11.51;71.33;101596.56;2079753;28;45289;-65
2022/05/28 04:28:24;;;;;;;7.60;0.57;;;;;;;11.34;71.38;101594.13;2079628;28;45031;-65
2022/05/28 04:29:29;;;;;;;8.82;0.98;;;;;;;11.58;70.91;101592.84;2080011;28;43837;-63
2022/05/28 04:30:31;;;;;;;7.78;1.00;;;;;;;11.84;71.05;101589.72;2079867;28;44531;-63
2022/05/28 04:31:33;;;;;;;8.18;0.90;;;;;;;11.80;70.73;101596.06;2079397;28;45313;-63
2022/05/28 04:32:34;;;;;;;8.10;0.80;;;;;;;11.78;71.67;101588.03;2080288;28;45630;-64
2022/05/28 04:33:36;;;;;;;9.02;1.10;;;;;;;11.80;71.38;101596.94;2079811;28;42002;-63
2022/05/28 04:34:37;;;;;;;14.30;1.05;;;;;;;11.44;72.40;101596.63;2079572;28;46144;-62
2022/05/28 04:35:39;;;;;;;6.90;0.60;;;;;;;11.46;71.07;101601.97;2079991;28;43111;-63
2022/05/28 04:36:41;;;;;;;9.90;0.80;;;;;;;11.25;71.96;101600.50;2079460;28;45726;-63
2022/05/28 04:37:43;;;;;;;8.88;0.80;;;;;;;11.09;72.56;101607.91;2079342;28;45602;-63
2022/05/28 04:38:44;;;;;;;6.88;0.90;;;;;;;10.96;73.32;101603.63;2078997;28;44914;-63
2022/05/28 04:39:46;;;;;;;8.80;0.90;;;;;;;10.67;73.91;101603.09;2079483;28;45039;-62
2022/05/28 04:40:48;;;;;;;8.18;0.85;;;;;;;10.80;74.60;101606.53;2080962;28;20119;-63
2022/05/28 04:41:55;;;;;;;11.23;1.27;;;;;;;11.00;73.66;101610.69;2080668;28;20046;-62
2022/05/28 04:42:56;;;;;;;10.88;0.93;;;;;;;11.46;72.37;101597.50;2079872;28;45686;-63
2022/05/28 04:43:58;;;;;;;11.23;1.02;;;;;;;11.71;70.98;101599.78;2079413;28;43245;-62
2022/05/28 04:45:03;;;;;;;9.20;1.23;;;;;;;11.97;70.27;101603.81;2080829;28;20034;-63
2022/05/28 04:46:05;;;;;;;9.80;1.05;;;;;;;12.53;68.70;101601.00;2075186;28;44112;-65
2022/05/28 04:47:07;;;;;;;7.80;0.75;;;;;;;12.86;67.21;101599.38;2079279;28;43968;-63
2022/05/28 04:48:09;;;;;;;9.45;1.30;;;;;;;12.89;66.74;101593.06;2079219;28;45147;-62
2022/05/28 04:49:11;;;;;;;11.52;1.25;;;;;;;13.64;65.59;101599.38;2079664;28;42913;-62
2022/05/28 04:50:13;;;;;;;11.95;1.10;;;;;;;13.64;63.67;101595.78;2079370;28;43295;-62
2022/05/28 04:51:15;;;;;;;10.68;1.08;;;;;;;14.13;62.85;101598.09;2079952;28;46090;-62
2022/05/28 04:52:19;;;;;;;11.18;1.20;;;;;;;14.33;61.97;101599.34;2079585;28;44989;-63
2022/05/28 04:53:20;;;;;;;9.73;1.13;;;;;;;14.15;60.97;101599.88;2079830;28;43988;-63
2022/05/28 04:54:22;;;;;;;8.27;1.25;;;;;;;14.44;61.74;101605.31;2079389;28;44219;-63
2022/05/28 04:55:24;;;;;;;8.00;0.95;;;;;;;14.62;61.35;101603.06;2079206;28;46136;-62
2022/05/28 04:56:25;;;;;;;6.50;1.13;;;;;;;14.72;60.85;101607.25;2079702;28;46162;-62
2022/05/28 04:57:27;;;;;;;10.32;1.10;;;;;;;14.68;60.00;101609.16;2079661;28;44123;-62
2022/05/28 04:58:29;;;;;;;10.30;0.75;;;;;;;14.38;61.21;101618.97;2101878;22;44618;-70
2022/05/28 04:59:31;;;;;;;7.10;0.80;;;;;;;14.22;61.15;101615.81;2083305;28;20049;-70
2022/05/28 05:00:33;;;;;;;10.73;1.00;;;;;;;14.08;61.82;101610.78;2078553;28;43318;-71
2022/05/28 05:01:36;;;;;;;13.18;1.38;;;;;;;13.49;62.31;101614.06;2079663;28;45779;-71
2022/05/28 05:02:38;;;;;;;11.38;1.35;;;;;;;13.28;64.89;101619.94;2079287;28;44439;-70
2022/05/28 05:03:40;;;;;;;11.50;1.35;;;;;;;12.83;66.58;101620.97;2079883;28;45473;-71
2022/05/28 05:04:43;;;;;;;9.45;0.98;;;;;;;13.05;66.81;101631.25;2078590;28;38877;-71
2022/05/28 05:05:44;;;;;;;10.80;1.05;;;;;;;12.45;67.42;101630.66;2079241;28;45457;-71